EZY86FG EGKK-HELX
Flight info
| Callsign | EZY86FG |
|---|---|
| Flight time | 5h 4m |
| Altitude | 35000 |
| Route | MIMFO Y312 DVR UL9 KONAN UL607 FERDI DCT REMBA UL607 SPI DCT ULNOK DCT VIBOM DCT NOMBO DCT RIDAR DCT LATLO DCT OBEDI DCT KLAGY DCT AGLIB DCT MITNO DCT VABEK UL603 OLOTA DCT DISOR/N0441F370 UL608 FSK DCT GIKAS DCT MES UL609 RDS UL995 VANZA DCT RASDA A16 CVO A727 LXR |
| Aircraft | A320/M-SDE2E3FGHIRWXY/LB1 |
Departure
| Time | 2026-04-23 11:03 |
|---|---|
| Airport | London Gatwick Airport (EGKK) |
Arrival
| Time | 2026-04-23 16:07 |
|---|---|
| Airport | Luxor International Airport (HELX) |
| Time | Latitude | Longitude | Altitude | Speed | Heading |
|---|---|---|---|---|---|
| 2026-04-23 10:17 | 51.16026 | -0.18005 | 213 ft | 0 kts | 77° |
| 2026-04-23 10:51 | 51.16026 | -0.18008 | 212 ft | 2 kts | 77° |
| 2026-04-23 10:51 | 51.16022 | -0.18035 | 214 ft | 4 kts | 77° |
| 2026-04-23 10:51 | 51.16015 | -0.18083 | 208 ft | 4 kts | 82° |
| 2026-04-23 10:51 | 51.16016 | -0.18123 | 207 ft | 4 kts | 120° |
| 2026-04-23 10:52 | 51.16027 | -0.18143 | 213 ft | 4 kts | 152° |
| 2026-04-23 10:52 | 51.16051 | -0.18155 | 212 ft | 4 kts | 167° |
| 2026-04-23 10:52 | 51.16077 | -0.18164 | 217 ft | 4 kts | 167° |
| 2026-04-23 10:52 | 51.16099 | -0.18172 | 214 ft | 1 kts | 167° |
| 2026-04-23 10:56 | 51.16063 | -0.18161 | 214 ft | 11 kts | 174° |
| 2026-04-23 10:56 | 51.15979 | -0.18249 | 207 ft | 18 kts | 191° |
| 2026-04-23 10:56 | 51.15829 | -0.18203 | 211 ft | 24 kts | 170° |
| 2026-04-23 10:56 | 51.15675 | -0.18199 | 212 ft | 22 kts | 209° |
| 2026-04-23 10:57 | 51.15535 | -0.18307 | 209 ft | 22 kts | 195° |
| 2026-04-23 10:57 | 51.15382 | -0.18273 | 211 ft | 23 kts | 168° |
| 2026-04-23 10:57 | 51.15223 | -0.18227 | 209 ft | 22 kts | 188° |
| 2026-04-23 10:57 | 51.15178 | -0.18399 | 208 ft | 17 kts | 249° |
| 2026-04-23 10:58 | 51.15146 | -0.18591 | 205 ft | 19 kts | 256° |
| 2026-04-23 10:58 | 51.15113 | -0.18802 | 216 ft | 20 kts | 256° |
| 2026-04-23 10:58 | 51.15083 | -0.19018 | 211 ft | 19 kts | 261° |
| 2026-04-23 10:58 | 51.15058 | -0.19226 | 216 ft | 20 kts | 256° |
| 2026-04-23 10:59 | 51.15030 | -0.19444 | 208 ft | 21 kts | 257° |
| 2026-04-23 10:59 | 51.14998 | -0.19675 | 213 ft | 22 kts | 259° |
| 2026-04-23 10:59 | 51.14968 | -0.19920 | 207 ft | 23 kts | 258° |
| 2026-04-23 10:59 | 51.14931 | -0.20178 | 207 ft | 24 kts | 256° |
| 2026-04-23 11:00 | 51.14892 | -0.20445 | 206 ft | 25 kts | 257° |
| 2026-04-23 11:00 | 51.14855 | -0.20723 | 213 ft | 26 kts | 260° |
| 2026-04-23 11:00 | 51.14820 | -0.21002 | 205 ft | 24 kts | 257° |
| 2026-04-23 11:00 | 51.14772 | -0.21259 | 205 ft | 25 kts | 251° |
| 2026-04-23 11:01 | 51.14693 | -0.21391 | 208 ft | 10 kts | 154° |
| 2026-04-23 11:01 | 51.14628 | -0.21327 | 209 ft | 11 kts | 161° |
| 2026-04-23 11:01 | 51.14553 | -0.21276 | 208 ft | 12 kts | 144° |
| 2026-04-23 11:01 | 51.14529 | -0.21119 | 211 ft | 25 kts | 77° |
| 2026-04-23 11:02 | 51.14598 | -0.20633 | 217 ft | 72 kts | 77° |
| 2026-04-23 11:02 | 51.14752 | -0.19542 | 209 ft | 128 kts | 77° |
| 2026-04-23 11:02 | 51.14983 | -0.17902 | 211 ft | 173 kts | 77° |
| 2026-04-23 11:02 | 51.15269 | -0.15963 | 717 ft | 177 kts | 77° |
| 2026-04-23 11:03 | 51.15532 | -0.14054 | 1294 ft | 180 kts | 78° |
| 2026-04-23 11:03 | 51.15819 | -0.12004 | 1529 ft | 198 kts | 77° |
| 2026-04-23 11:03 | 51.16147 | -0.09794 | 1839 ft | 212 kts | 76° |
| 2026-04-23 11:03 | 51.16526 | -0.07400 | 2112 ft | 234 kts | 76° |
| 2026-04-23 11:04 | 51.16869 | -0.04764 | 2535 ft | 250 kts | 80° |
| 2026-04-23 11:04 | 51.16922 | -0.01981 | 3198 ft | 255 kts | 93° |
| 2026-04-23 11:04 | 51.16834 | 0.00852 | 3942 ft | 257 kts | 92° |
| 2026-04-23 11:04 | 51.16767 | 0.03717 | 4667 ft | 260 kts | 92° |
| 2026-04-23 11:05 | 51.16707 | 0.06616 | 5378 ft | 263 kts | 92° |
| 2026-04-23 11:05 | 51.16650 | 0.09544 | 6084 ft | 266 kts | 91° |
| 2026-04-23 11:05 | 51.16596 | 0.12499 | 6775 ft | 268 kts | 91° |
| 2026-04-23 11:05 | 51.16542 | 0.15485 | 7457 ft | 271 kts | 91° |
| 2026-04-23 11:06 | 51.16528 | 0.21547 | 8783 ft | 276 kts | 89° |
| 2026-04-23 11:06 | 51.16544 | 0.24622 | 9424 ft | 279 kts | 89° |
| 2026-04-23 11:06 | 51.16560 | 0.27732 | 10069 ft | 282 kts | 89° |
| 2026-04-23 11:07 | 51.16574 | 0.30864 | 10678 ft | 284 kts | 89° |
| 2026-04-23 11:07 | 51.16584 | 0.34028 | 11284 ft | 287 kts | 90° |
| 2026-04-23 11:07 | 51.16589 | 0.37218 | 11882 ft | 289 kts | 90° |
| 2026-04-23 11:07 | 51.16590 | 0.40443 | 12475 ft | 292 kts | 90° |
| 2026-04-23 11:08 | 51.16591 | 0.43688 | 13040 ft | 295 kts | 90° |
| 2026-04-23 11:08 | 51.16592 | 0.46970 | 13600 ft | 297 kts | 90° |
| 2026-04-23 11:08 | 51.16591 | 0.50282 | 14018 ft | 306 kts | 90° |
| 2026-04-23 11:08 | 51.16591 | 0.53770 | 14146 ft | 323 kts | 90° |
| 2026-04-23 11:09 | 51.16588 | 0.57446 | 14278 ft | 340 kts | 90° |
| 2026-04-23 11:09 | 51.16583 | 0.61294 | 14407 ft | 355 kts | 90° |
| 2026-04-23 11:09 | 51.16581 | 0.65312 | 14535 ft | 370 kts | 90° |
| 2026-04-23 11:09 | 51.16578 | 0.69486 | 14662 ft | 383 kts | 90° |
| 2026-04-23 11:10 | 51.16572 | 0.73798 | 14790 ft | 395 kts | 90° |
| 2026-04-23 11:10 | 51.16562 | 0.78233 | 14941 ft | 405 kts | 90° |
| 2026-04-23 11:10 | 51.16550 | 0.82749 | 15259 ft | 409 kts | 90° |
| 2026-04-23 11:10 | 51.16536 | 0.87300 | 15634 ft | 412 kts | 90° |
| 2026-04-23 11:11 | 51.16521 | 0.91877 | 16015 ft | 414 kts | 90° |
| 2026-04-23 11:11 | 51.16502 | 0.96480 | 16390 ft | 416 kts | 90° |
| 2026-04-23 11:11 | 51.16479 | 1.01100 | 16759 ft | 418 kts | 90° |
| 2026-04-23 11:11 | 51.16453 | 1.05622 | 17826 ft | 398 kts | 90° |
| 2026-04-23 11:12 | 51.16428 | 1.09927 | 19006 ft | 378 kts | 90° |
| 2026-04-23 11:12 | 51.16404 | 1.13999 | 20175 ft | 357 kts | 90° |
| 2026-04-23 11:12 | 51.16381 | 1.17834 | 21311 ft | 336 kts | 90° |
| 2026-04-23 11:12 | 51.16360 | 1.21498 | 22058 ft | 328 kts | 90° |
| 2026-04-23 11:13 | 51.16337 | 1.25130 | 22498 ft | 328 kts | 90° |
| 2026-04-23 11:13 | 51.16312 | 1.28771 | 22873 ft | 330 kts | 90° |
| 2026-04-23 11:13 | 51.16287 | 1.32436 | 23313 ft | 332 kts | 90° |
| 2026-04-23 11:13 | 51.16257 | 1.36134 | 23750 ft | 336 kts | 91° |
| 2026-04-23 11:14 | 51.16155 | 1.39936 | 23872 ft | 350 kts | 94° |
| 2026-04-23 11:14 | 51.15976 | 1.43875 | 24004 ft | 363 kts | 95° |
| 2026-04-23 11:14 | 51.15758 | 1.47940 | 24132 ft | 374 kts | 95° |
| 2026-04-23 11:14 | 51.15523 | 1.52132 | 24260 ft | 385 kts | 95° |
| 2026-04-23 11:15 | 51.15286 | 1.56424 | 24388 ft | 393 kts | 95° |
| 2026-04-23 11:15 | 51.15057 | 1.60806 | 24521 ft | 401 kts | 95° |
| 2026-04-23 11:15 | 51.14843 | 1.65157 | 25356 ft | 384 kts | 94° |
| 2026-04-23 11:15 | 51.14643 | 1.69282 | 26397 ft | 365 kts | 94° |
| 2026-04-23 11:16 | 51.14443 | 1.73348 | 26533 ft | 374 kts | 94° |
| 2026-04-23 11:16 | 51.14234 | 1.77523 | 26536 ft | 383 kts | 95° |
| 2026-04-23 11:16 | 51.14019 | 1.81748 | 26543 ft | 392 kts | 95° |
| 2026-04-23 11:16 | 51.13794 | 1.86164 | 26663 ft | 398 kts | 95° |
| 2026-04-23 11:17 | 51.13571 | 1.90534 | 26790 ft | 404 kts | 95° |
| 2026-04-23 11:17 | 51.13339 | 1.95015 | 26917 ft | 409 kts | 95° |
| 2026-04-23 11:17 | 51.13103 | 1.99529 | 27334 ft | 400 kts | 95° |
| 2026-04-23 11:17 | 51.12903 | 2.03682 | 29092 ft | 354 kts | 94° |
| 2026-04-23 11:18 | 51.12751 | 2.07377 | 30582 ft | 315 kts | 94° |
| 2026-04-23 11:18 | 51.12615 | 2.10665 | 31690 ft | 285 kts | 95° |
| 2026-04-23 11:18 | 51.12441 | 2.13781 | 31887 ft | 286 kts | 96° |
| 2026-04-23 11:18 | 51.12231 | 2.17105 | 31066 ft | 322 kts | 96° |
| 2026-04-23 11:19 | 51.12023 | 2.20765 | 30993 ft | 323 kts | 94° |
| 2026-04-23 11:19 | 51.11862 | 2.24074 | 32245 ft | 283 kts | 94° |
| 2026-04-23 11:19 | 51.11711 | 2.27190 | 32353 ft | 288 kts | 97° |
| 2026-04-23 11:19 | 51.11444 | 2.30469 | 31921 ft | 308 kts | 97° |
| 2026-04-23 11:20 | 51.11129 | 2.33844 | 32066 ft | 304 kts | 101° |
| 2026-04-23 11:20 | 51.10745 | 2.37037 | 32654 ft | 285 kts | 99° |
| 2026-04-23 11:20 | 51.10524 | 2.40158 | 32760 ft | 286 kts | 93° |
| 2026-04-23 11:20 | 51.10411 | 2.43395 | 32482 ft | 300 kts | 94° |
| 2026-04-23 11:21 | 51.10255 | 2.46798 | 32154 ft | 317 kts | 93° |
| 2026-04-23 11:21 | 51.10130 | 2.50287 | 32320 ft | 314 kts | 94° |
| 2026-04-23 11:21 | 51.10003 | 2.53772 | 32377 ft | 319 kts | 92° |
| 2026-04-23 11:22 | 51.09829 | 2.60976 | 32395 ft | 329 kts | 92° |
| 2026-04-23 11:22 | 51.09733 | 2.64580 | 32723 ft | 322 kts | 92° |
| 2026-04-23 11:22 | 51.09638 | 2.68120 | 32967 ft | 320 kts | 93° |
| 2026-04-23 11:22 | 51.09239 | 2.71624 | 32866 ft | 328 kts | 109° |
| 2026-04-23 11:23 | 51.08442 | 2.75072 | 32821 ft | 334 kts | 112° |
| 2026-04-23 11:23 | 51.07562 | 2.78478 | 33009 ft | 334 kts | 112° |
| 2026-04-23 11:23 | 51.06650 | 2.82026 | 32536 ft | 356 kts | 111° |
| 2026-04-23 11:23 | 51.05794 | 2.85733 | 32654 ft | 358 kts | 109° |
| 2026-04-23 11:24 | 51.05015 | 2.89505 | 32776 ft | 361 kts | 107° |
| 2026-04-23 11:24 | 51.04292 | 2.93338 | 32902 ft | 364 kts | 106° |
| 2026-04-23 11:24 | 51.03596 | 2.97212 | 33023 ft | 366 kts | 105° |
| 2026-04-23 11:24 | 51.02904 | 3.01127 | 33169 ft | 369 kts | 105° |
| 2026-04-23 11:25 | 51.02201 | 3.05054 | 33280 ft | 371 kts | 106° |
| 2026-04-23 11:25 | 51.01485 | 3.09003 | 33404 ft | 373 kts | 106° |
| 2026-04-23 11:25 | 51.00761 | 3.12972 | 33532 ft | 375 kts | 106° |
| 2026-04-23 11:25 | 51.00027 | 3.16964 | 33657 ft | 377 kts | 106° |
| 2026-04-23 11:26 | 50.99287 | 3.20969 | 33782 ft | 379 kts | 106° |
| 2026-04-23 11:26 | 50.98538 | 3.24996 | 33911 ft | 381 kts | 106° |
| 2026-04-23 11:26 | 50.97783 | 3.29034 | 34035 ft | 383 kts | 107° |
| 2026-04-23 11:26 | 50.97024 | 3.33085 | 34160 ft | 384 kts | 107° |
| 2026-04-23 11:27 | 50.96262 | 3.37155 | 34283 ft | 386 kts | 106° |
| 2026-04-23 11:27 | 50.95498 | 3.41240 | 34410 ft | 387 kts | 107° |
| 2026-04-23 11:27 | 50.94729 | 3.45338 | 34537 ft | 388 kts | 107° |
| 2026-04-23 11:27 | 50.93958 | 3.49447 | 34663 ft | 389 kts | 107° |
| 2026-04-23 11:28 | 50.93184 | 3.53561 | 34785 ft | 390 kts | 107° |
| 2026-04-23 11:28 | 50.92404 | 3.57679 | 34944 ft | 390 kts | 107° |
| 2026-04-23 11:28 | 50.91621 | 3.61801 | 35003 ft | 393 kts | 107° |
| 2026-04-23 11:29 | 50.90028 | 3.70185 | 35010 ft | 401 kts | 107° |
| 2026-04-23 11:29 | 50.88398 | 3.78740 | 35009 ft | 410 kts | 107° |
| 2026-04-23 11:30 | 50.86722 | 3.87474 | 35012 ft | 419 kts | 107° |
| 2026-04-23 11:30 | 50.85008 | 3.96393 | 35011 ft | 427 kts | 107° |
| 2026-04-23 11:31 | 50.83258 | 4.05456 | 35008 ft | 435 kts | 107° |
| 2026-04-23 11:31 | 50.81476 | 4.14636 | 35010 ft | 438 kts | 107° |
| 2026-04-23 11:32 | 50.79677 | 4.23828 | 35009 ft | 438 kts | 107° |
| 2026-04-23 11:32 | 50.78176 | 4.31473 | 35010 ft | 438 kts | 107° |
| 2026-04-23 11:33 | 50.76369 | 4.40667 | 35013 ft | 438 kts | 107° |
| 2026-04-23 11:33 | 50.74265 | 4.51341 | 35014 ft | 438 kts | 107° |
| 2026-04-23 11:34 | 50.72738 | 4.59029 | 35007 ft | 438 kts | 107° |
| 2026-04-23 11:34 | 50.70900 | 4.68192 | 35015 ft | 438 kts | 108° |
| 2026-04-23 11:35 | 50.69068 | 4.77298 | 35007 ft | 438 kts | 108° |
| 2026-04-23 11:35 | 50.67220 | 4.86453 | 35011 ft | 438 kts | 108° |
| 2026-04-23 11:36 | 50.65363 | 4.95615 | 35007 ft | 439 kts | 108° |
| 2026-04-23 11:36 | 50.63489 | 5.04765 | 35006 ft | 439 kts | 108° |
| 2026-04-23 11:37 | 50.61604 | 5.13896 | 35005 ft | 439 kts | 108° |
| 2026-04-23 11:37 | 50.59709 | 5.23025 | 35009 ft | 441 kts | 108° |
| 2026-04-23 11:38 | 50.57789 | 5.32284 | 35009 ft | 448 kts | 108° |
| 2026-04-23 11:38 | 50.55832 | 5.41682 | 35008 ft | 456 kts | 108° |
| 2026-04-23 11:39 | 50.53836 | 5.51182 | 35013 ft | 459 kts | 108° |
| 2026-04-23 11:39 | 50.51822 | 5.60691 | 35012 ft | 458 kts | 108° |
| 2026-04-23 11:40 | 50.49764 | 5.70184 | 35012 ft | 459 kts | 109° |
| 2026-04-23 11:40 | 50.47632 | 5.79638 | 35012 ft | 460 kts | 109° |
| 2026-04-23 11:41 | 50.45477 | 5.89082 | 35004 ft | 460 kts | 110° |
| 2026-04-23 11:41 | 50.43336 | 5.98483 | 35013 ft | 461 kts | 109° |
| 2026-04-23 11:42 | 50.41192 | 6.07948 | 35011 ft | 460 kts | 109° |
| 2026-04-23 11:42 | 50.39024 | 6.17473 | 35011 ft | 461 kts | 110° |
| 2026-04-23 11:43 | 50.36869 | 6.26860 | 35006 ft | 461 kts | 110° |
| 2026-04-23 11:43 | 50.34692 | 6.36312 | 35004 ft | 461 kts | 110° |
| 2026-04-23 11:44 | 50.32506 | 6.45754 | 35004 ft | 461 kts | 110° |
| 2026-04-23 11:44 | 50.30311 | 6.55188 | 35010 ft | 461 kts | 110° |
| 2026-04-23 11:45 | 50.28109 | 6.64603 | 35008 ft | 461 kts | 110° |
| 2026-04-23 11:45 | 50.25901 | 6.74008 | 35010 ft | 461 kts | 110° |
| 2026-04-23 11:46 | 50.23686 | 6.83402 | 35010 ft | 461 kts | 110° |
| 2026-04-23 11:46 | 50.21470 | 6.92792 | 35008 ft | 461 kts | 110° |
| 2026-04-23 11:47 | 50.19248 | 7.02175 | 35004 ft | 461 kts | 110° |
| 2026-04-23 11:47 | 50.17017 | 7.11542 | 35008 ft | 461 kts | 110° |
| 2026-04-23 11:48 | 50.14776 | 7.20880 | 35010 ft | 459 kts | 110° |
| 2026-04-23 11:48 | 50.12529 | 7.30193 | 35007 ft | 459 kts | 110° |
| 2026-04-23 11:49 | 50.10277 | 7.39504 | 35010 ft | 459 kts | 110° |
| 2026-04-23 11:49 | 50.08019 | 7.48811 | 35009 ft | 460 kts | 110° |
| 2026-04-23 11:50 | 50.05751 | 7.58129 | 35014 ft | 460 kts | 111° |
| 2026-04-23 11:50 | 50.03473 | 7.67437 | 35013 ft | 460 kts | 111° |
| 2026-04-23 11:51 | 50.01187 | 7.76742 | 35010 ft | 460 kts | 111° |
| 2026-04-23 11:51 | 49.98893 | 7.86026 | 35013 ft | 460 kts | 111° |
| 2026-04-23 11:52 | 49.96593 | 7.95285 | 35011 ft | 458 kts | 111° |
| 2026-04-23 11:52 | 49.94297 | 8.04513 | 35006 ft | 458 kts | 111° |
| 2026-04-23 11:53 | 49.91996 | 8.13739 | 35008 ft | 458 kts | 111° |
| 2026-04-23 11:53 | 49.89686 | 8.22966 | 35010 ft | 459 kts | 111° |
| 2026-04-23 11:54 | 49.87362 | 8.32168 | 35011 ft | 458 kts | 111° |
| 2026-04-23 11:54 | 49.84868 | 8.41255 | 35010 ft | 458 kts | 120° |
| 2026-04-23 11:55 | 49.81134 | 8.49209 | 35011 ft | 458 kts | 129° |
| 2026-04-23 11:55 | 49.77156 | 8.56906 | 35010 ft | 458 kts | 128° |
| 2026-04-23 11:56 | 49.73186 | 8.64611 | 35010 ft | 458 kts | 128° |
| 2026-04-23 11:56 | 49.69205 | 8.72315 | 35010 ft | 460 kts | 128° |
| 2026-04-23 11:57 | 49.65204 | 8.80020 | 35003 ft | 459 kts | 129° |
| 2026-04-23 11:57 | 49.61198 | 8.87708 | 35009 ft | 460 kts | 129° |
| 2026-04-23 11:58 | 49.57181 | 8.95388 | 35007 ft | 460 kts | 129° |
| 2026-04-23 11:58 | 49.53159 | 9.03068 | 35011 ft | 460 kts | 129° |
| 2026-04-23 11:59 | 49.49137 | 9.10725 | 35010 ft | 460 kts | 129° |
| 2026-04-23 11:59 | 49.45306 | 9.18604 | 35005 ft | 460 kts | 123° |
| 2026-04-23 12:00 | 49.41815 | 9.26834 | 35015 ft | 460 kts | 123° |
| 2026-04-23 12:00 | 49.38318 | 9.35042 | 35015 ft | 459 kts | 123° |
| 2026-04-23 12:01 | 49.34808 | 9.43239 | 35013 ft | 459 kts | 123° |
| 2026-04-23 12:01 | 49.31294 | 9.51420 | 35014 ft | 459 kts | 123° |
| 2026-04-23 12:02 | 49.27782 | 9.59591 | 35015 ft | 459 kts | 123° |
| 2026-04-23 12:02 | 49.24282 | 9.67711 | 35012 ft | 460 kts | 123° |
| 2026-04-23 12:03 | 49.20720 | 9.75918 | 35009 ft | 460 kts | 123° |
| 2026-04-23 12:03 | 49.17176 | 9.84062 | 35008 ft | 460 kts | 123° |
| 2026-04-23 12:04 | 49.13629 | 9.92198 | 35009 ft | 460 kts | 123° |
| 2026-04-23 12:04 | 49.10076 | 10.00336 | 35013 ft | 461 kts | 123° |
| 2026-04-23 12:05 | 49.06455 | 10.08390 | 35004 ft | 460 kts | 129° |
| 2026-04-23 12:05 | 49.02054 | 10.15385 | 35008 ft | 461 kts | 135° |
| 2026-04-23 12:06 | 48.97513 | 10.22269 | 35007 ft | 461 kts | 135° |
| 2026-04-23 12:06 | 48.90665 | 10.32632 | 35016 ft | 461 kts | 135° |
| 2026-04-23 12:07 | 48.86118 | 10.39494 | 35004 ft | 461 kts | 135° |
| 2026-04-23 12:07 | 48.81594 | 10.46311 | 35007 ft | 461 kts | 135° |
| 2026-04-23 12:08 | 48.77035 | 10.53151 | 35014 ft | 461 kts | 135° |
| 2026-04-23 12:08 | 48.72474 | 10.59971 | 35013 ft | 461 kts | 135° |
| 2026-04-23 12:09 | 48.67911 | 10.66782 | 35008 ft | 461 kts | 135° |
| 2026-04-23 12:09 | 48.63351 | 10.73583 | 35011 ft | 460 kts | 135° |
| 2026-04-23 12:10 | 48.58878 | 10.80493 | 35010 ft | 460 kts | 128° |
| 2026-04-23 12:10 | 48.55275 | 10.88483 | 35012 ft | 460 kts | 123° |
| 2026-04-23 12:11 | 48.51752 | 10.96548 | 35008 ft | 461 kts | 123° |
| 2026-04-23 12:11 | 48.48216 | 11.04603 | 35005 ft | 461 kts | 123° |
| 2026-04-23 12:12 | 48.44679 | 11.12654 | 35009 ft | 461 kts | 123° |
| 2026-04-23 12:12 | 48.41133 | 11.20694 | 35008 ft | 461 kts | 123° |
| 2026-04-23 12:13 | 48.37582 | 11.28718 | 35014 ft | 461 kts | 123° |
| 2026-04-23 12:13 | 48.34025 | 11.36740 | 35006 ft | 461 kts | 123° |
| 2026-04-23 12:14 | 48.30467 | 11.44752 | 35009 ft | 461 kts | 124° |
| 2026-04-23 12:14 | 48.26901 | 11.52742 | 35009 ft | 461 kts | 124° |
| 2026-04-23 12:15 | 48.23325 | 11.60716 | 35013 ft | 461 kts | 124° |
| 2026-04-23 12:15 | 48.19748 | 11.68687 | 35007 ft | 461 kts | 124° |
| 2026-04-23 12:16 | 48.16173 | 11.76666 | 35008 ft | 461 kts | 124° |
| 2026-04-23 12:16 | 48.12582 | 11.84616 | 35005 ft | 461 kts | 124° |
| 2026-04-23 12:17 | 48.09591 | 11.91209 | 35015 ft | 461 kts | 124° |
| 2026-04-23 12:17 | 48.05988 | 11.99152 | 35015 ft | 461 kts | 124° |
| 2026-04-23 12:18 | 48.02383 | 12.07080 | 35005 ft | 461 kts | 124° |
| 2026-04-23 12:18 | 47.98775 | 12.14989 | 35005 ft | 461 kts | 124° |
| 2026-04-23 12:19 | 47.95154 | 12.22873 | 35007 ft | 461 kts | 124° |
| 2026-04-23 12:19 | 47.91532 | 12.30759 | 35015 ft | 461 kts | 124° |
| 2026-04-23 12:20 | 47.87907 | 12.38650 | 35010 ft | 461 kts | 124° |
| 2026-04-23 12:20 | 47.84278 | 12.46521 | 35011 ft | 461 kts | 124° |
| 2026-04-23 12:21 | 47.80635 | 12.54378 | 35010 ft | 461 kts | 124° |
| 2026-04-23 12:21 | 47.76987 | 12.62234 | 35008 ft | 463 kts | 124° |
| 2026-04-23 12:22 | 47.73316 | 12.70113 | 35005 ft | 464 kts | 124° |
| 2026-04-23 12:22 | 47.69631 | 12.78000 | 35011 ft | 464 kts | 125° |
| 2026-04-23 12:23 | 47.65364 | 12.85149 | 35006 ft | 463 kts | 135° |
| 2026-04-23 12:23 | 47.60816 | 12.91870 | 35008 ft | 465 kts | 135° |
| 2026-04-23 12:24 | 47.56214 | 12.98669 | 35011 ft | 465 kts | 135° |
| 2026-04-23 12:24 | 47.51620 | 13.05447 | 35009 ft | 469 kts | 135° |
| 2026-04-23 12:25 | 47.46984 | 13.12247 | 35009 ft | 467 kts | 135° |
| 2026-04-23 12:25 | 47.42406 | 13.18945 | 35009 ft | 466 kts | 135° |
| 2026-04-23 12:26 | 47.37811 | 13.25651 | 35011 ft | 464 kts | 135° |
| 2026-04-23 12:26 | 47.33212 | 13.32362 | 35007 ft | 465 kts | 133° |
| 2026-04-23 12:27 | 47.29071 | 13.39737 | 35006 ft | 467 kts | 129° |
| 2026-04-23 12:27 | 47.24982 | 13.47178 | 35005 ft | 470 kts | 129° |
| 2026-04-23 12:28 | 47.20858 | 13.54646 | 35005 ft | 470 kts | 129° |
| 2026-04-23 12:28 | 47.16740 | 13.62095 | 35013 ft | 469 kts | 129° |
| 2026-04-23 12:29 | 47.12630 | 13.69512 | 35008 ft | 466 kts | 129° |
| 2026-04-23 12:29 | 47.08527 | 13.76887 | 35005 ft | 467 kts | 129° |
| 2026-04-23 12:30 | 47.04411 | 13.84262 | 35005 ft | 467 kts | 129° |
| 2026-04-23 12:30 | 47.00279 | 13.91648 | 35007 ft | 468 kts | 129° |
| 2026-04-23 12:31 | 46.96143 | 13.99025 | 35009 ft | 469 kts | 129° |
| 2026-04-23 12:31 | 46.92006 | 14.06381 | 35004 ft | 467 kts | 129° |
| 2026-04-23 12:32 | 46.87887 | 14.13687 | 35008 ft | 464 kts | 129° |
| 2026-04-23 12:32 | 46.83778 | 14.20955 | 35012 ft | 463 kts | 129° |
| 2026-04-23 12:33 | 46.79666 | 14.28217 | 35011 ft | 464 kts | 129° |
| 2026-04-23 12:33 | 46.75546 | 14.35457 | 35010 ft | 462 kts | 129° |
| 2026-04-23 12:34 | 46.71440 | 14.42658 | 35009 ft | 462 kts | 129° |
| 2026-04-23 12:34 | 46.67334 | 14.49853 | 35010 ft | 461 kts | 129° |
| 2026-04-23 12:35 | 46.63233 | 14.57021 | 35006 ft | 460 kts | 130° |
| 2026-04-23 12:35 | 46.59123 | 14.64171 | 35009 ft | 461 kts | 130° |
| 2026-04-23 12:36 | 46.55007 | 14.71315 | 35006 ft | 461 kts | 130° |
| 2026-04-23 12:36 | 46.50866 | 14.78482 | 35008 ft | 466 kts | 129° |
| 2026-04-23 12:37 | 46.46767 | 14.85770 | 35014 ft | 464 kts | 129° |
| 2026-04-23 12:37 | 46.42736 | 14.93071 | 35011 ft | 464 kts | 128° |
| 2026-04-23 12:38 | 46.38694 | 15.00359 | 35012 ft | 462 kts | 129° |
| 2026-04-23 12:38 | 46.34648 | 15.07570 | 35005 ft | 461 kts | 129° |
| 2026-04-23 12:39 | 46.30596 | 15.14748 | 35007 ft | 460 kts | 129° |
| 2026-04-23 12:39 | 46.26547 | 15.21918 | 35007 ft | 460 kts | 129° |
| 2026-04-23 12:40 | 46.22510 | 15.29070 | 35011 ft | 459 kts | 129° |
| 2026-04-23 12:40 | 46.18463 | 15.36213 | 35011 ft | 460 kts | 129° |
| 2026-04-23 12:41 | 46.14405 | 15.43352 | 35011 ft | 460 kts | 129° |
| 2026-04-23 12:41 | 46.10335 | 15.50489 | 35013 ft | 460 kts | 129° |
| 2026-04-23 12:42 | 46.06268 | 15.57602 | 35012 ft | 460 kts | 129° |
| 2026-04-23 12:42 | 46.02230 | 15.64654 | 35003 ft | 460 kts | 129° |
| 2026-04-23 12:43 | 45.98159 | 15.71738 | 35009 ft | 459 kts | 129° |
| 2026-04-23 12:43 | 45.94088 | 15.78809 | 35010 ft | 459 kts | 129° |
| 2026-04-23 12:44 | 45.89988 | 15.85907 | 35009 ft | 458 kts | 129° |
| 2026-04-23 12:44 | 45.85911 | 15.92955 | 35006 ft | 460 kts | 129° |
| 2026-04-23 12:45 | 45.81824 | 16.00007 | 35007 ft | 459 kts | 130° |
| 2026-04-23 12:45 | 45.77768 | 16.06986 | 35012 ft | 458 kts | 130° |
| 2026-04-23 12:46 | 45.73684 | 16.13999 | 35005 ft | 458 kts | 130° |
| 2026-04-23 12:46 | 45.69597 | 16.20999 | 35009 ft | 458 kts | 130° |
| 2026-04-23 12:47 | 45.65504 | 16.27981 | 35009 ft | 458 kts | 130° |
| 2026-04-23 12:47 | 45.61405 | 16.34948 | 35006 ft | 458 kts | 130° |
| 2026-04-23 12:48 | 45.57306 | 16.41901 | 35004 ft | 458 kts | 130° |
| 2026-04-23 12:48 | 45.53198 | 16.48852 | 35007 ft | 458 kts | 130° |
| 2026-04-23 12:49 | 45.49086 | 16.55798 | 35004 ft | 458 kts | 130° |
| 2026-04-23 12:49 | 45.44975 | 16.62732 | 35015 ft | 458 kts | 130° |
| 2026-04-23 12:50 | 45.40862 | 16.69662 | 35009 ft | 458 kts | 130° |
| 2026-04-23 12:50 | 45.36740 | 16.76582 | 35005 ft | 458 kts | 130° |
| 2026-04-23 12:51 | 45.32612 | 16.83474 | 35012 ft | 458 kts | 130° |
| 2026-04-23 12:51 | 45.28480 | 16.90371 | 35007 ft | 458 kts | 130° |
| 2026-04-23 12:52 | 45.24352 | 16.97248 | 35009 ft | 458 kts | 130° |
| 2026-04-23 12:52 | 45.20213 | 17.04127 | 35008 ft | 458 kts | 130° |
| 2026-04-23 12:53 | 45.16070 | 17.10987 | 35012 ft | 458 kts | 130° |
| 2026-04-23 12:53 | 45.11906 | 17.17827 | 35011 ft | 458 kts | 131° |
| 2026-04-23 12:54 | 45.07681 | 17.24574 | 35012 ft | 458 kts | 132° |
| 2026-04-23 12:54 | 45.03444 | 17.31230 | 35012 ft | 458 kts | 132° |
| 2026-04-23 12:55 | 44.99188 | 17.37927 | 35009 ft | 458 kts | 131° |
| 2026-04-23 12:55 | 44.94941 | 17.44632 | 35007 ft | 458 kts | 131° |
| 2026-04-23 12:56 | 44.90684 | 17.51345 | 35007 ft | 459 kts | 131° |
| 2026-04-23 12:56 | 44.86424 | 17.58046 | 35011 ft | 459 kts | 132° |
| 2026-04-23 12:57 | 44.82156 | 17.64735 | 35008 ft | 459 kts | 132° |
| 2026-04-23 12:57 | 44.77882 | 17.71415 | 35004 ft | 459 kts | 132° |
| 2026-04-23 12:58 | 44.73603 | 17.78079 | 35013 ft | 459 kts | 132° |
| 2026-04-23 12:58 | 44.69316 | 17.84737 | 35009 ft | 459 kts | 132° |
| 2026-04-23 12:59 | 44.65036 | 17.91394 | 35004 ft | 459 kts | 132° |
| 2026-04-23 12:59 | 44.60753 | 17.98035 | 35006 ft | 459 kts | 132° |
| 2026-04-23 13:00 | 44.56453 | 18.04671 | 35007 ft | 460 kts | 132° |
| 2026-04-23 13:00 | 44.52147 | 18.11300 | 35010 ft | 459 kts | 132° |
| 2026-04-23 13:01 | 44.47845 | 18.17911 | 35010 ft | 459 kts | 132° |
| 2026-04-23 13:01 | 44.43535 | 18.24517 | 35005 ft | 460 kts | 132° |
| 2026-04-23 13:02 | 44.39951 | 18.30007 | 35009 ft | 460 kts | 132° |
| 2026-04-23 13:02 | 44.35636 | 18.36603 | 35009 ft | 460 kts | 132° |
| 2026-04-23 13:03 | 44.30606 | 18.44264 | 35008 ft | 460 kts | 132° |
| 2026-04-23 13:03 | 44.26969 | 18.49793 | 35009 ft | 463 kts | 133° |
| 2026-04-23 13:04 | 44.22600 | 18.56423 | 35008 ft | 464 kts | 133° |
| 2026-04-23 13:04 | 44.18224 | 18.63048 | 35012 ft | 464 kts | 133° |
| 2026-04-23 13:05 | 44.13853 | 18.69655 | 35008 ft | 463 kts | 133° |
| 2026-04-23 13:05 | 44.09502 | 18.76207 | 35012 ft | 465 kts | 133° |
| 2026-04-23 13:06 | 44.02891 | 18.86100 | 35003 ft | 465 kts | 133° |
| 2026-04-23 13:07 | 43.98492 | 18.92695 | 35013 ft | 465 kts | 133° |
| 2026-04-23 13:07 | 43.94091 | 18.99283 | 35011 ft | 466 kts | 133° |
| 2026-04-23 13:08 | 43.89687 | 19.05862 | 35009 ft | 465 kts | 133° |
| 2026-04-23 13:08 | 43.85286 | 19.12426 | 35011 ft | 465 kts | 133° |
| 2026-04-23 13:09 | 43.80872 | 19.18988 | 35013 ft | 466 kts | 133° |
| 2026-04-23 13:09 | 43.76455 | 19.25540 | 35012 ft | 464 kts | 133° |
| 2026-04-23 13:10 | 43.72058 | 19.32036 | 35008 ft | 462 kts | 133° |
| 2026-04-23 13:10 | 43.67661 | 19.38521 | 35007 ft | 464 kts | 133° |
| 2026-04-23 13:11 | 43.63242 | 19.45028 | 35004 ft | 464 kts | 133° |
| 2026-04-23 13:11 | 43.58830 | 19.51517 | 35008 ft | 462 kts | 133° |
| 2026-04-23 13:12 | 43.54440 | 19.57955 | 35014 ft | 461 kts | 133° |
| 2026-04-23 13:12 | 43.50030 | 19.64413 | 35007 ft | 463 kts | 133° |
| 2026-04-23 13:13 | 43.45609 | 19.70863 | 35009 ft | 463 kts | 133° |
| 2026-04-23 13:13 | 43.41172 | 19.77317 | 35008 ft | 466 kts | 133° |
| 2026-04-23 13:14 | 43.36711 | 19.83804 | 35008 ft | 467 kts | 133° |
| 2026-04-23 13:14 | 43.32245 | 19.90276 | 35014 ft | 466 kts | 133° |
| 2026-04-23 13:15 | 43.27779 | 19.96728 | 35005 ft | 465 kts | 133° |
| 2026-04-23 13:15 | 43.23325 | 20.03154 | 35004 ft | 465 kts | 133° |
| 2026-04-23 13:16 | 43.18863 | 20.09576 | 35009 ft | 465 kts | 134° |
| 2026-04-23 13:16 | 43.14391 | 20.15983 | 35009 ft | 465 kts | 134° |
| 2026-04-23 13:17 | 43.09913 | 20.22397 | 35015 ft | 465 kts | 134° |
| 2026-04-23 13:17 | 43.05440 | 20.28792 | 35009 ft | 466 kts | 134° |
| 2026-04-23 13:18 | 43.00956 | 20.35179 | 35007 ft | 465 kts | 134° |
| 2026-04-23 13:18 | 42.96479 | 20.41554 | 35007 ft | 466 kts | 134° |
| 2026-04-23 13:19 | 42.91989 | 20.47935 | 35006 ft | 466 kts | 134° |
| 2026-04-23 13:19 | 42.87487 | 20.54324 | 35010 ft | 469 kts | 134° |
| 2026-04-23 13:20 | 42.82972 | 20.60710 | 35013 ft | 466 kts | 134° |
| 2026-04-23 13:20 | 42.78493 | 20.67025 | 35005 ft | 462 kts | 134° |
| 2026-04-23 13:21 | 42.74022 | 20.73312 | 35013 ft | 462 kts | 134° |
| 2026-04-23 13:21 | 42.69550 | 20.79590 | 35009 ft | 462 kts | 134° |
| 2026-04-23 13:22 | 42.65083 | 20.85868 | 35012 ft | 462 kts | 134° |
| 2026-04-23 13:22 | 42.60608 | 20.92116 | 35012 ft | 461 kts | 134° |
| 2026-04-23 13:23 | 42.56123 | 20.98359 | 35012 ft | 463 kts | 134° |
| 2026-04-23 13:23 | 42.51636 | 21.04609 | 35010 ft | 462 kts | 134° |
| 2026-04-23 13:24 | 42.47157 | 21.10837 | 35008 ft | 461 kts | 134° |
| 2026-04-23 13:24 | 42.42672 | 21.17045 | 35011 ft | 461 kts | 134° |
| 2026-04-23 13:25 | 42.38182 | 21.23247 | 35004 ft | 461 kts | 134° |
| 2026-04-23 13:25 | 42.33695 | 21.29447 | 35008 ft | 461 kts | 134° |
| 2026-04-23 13:26 | 42.29202 | 21.35631 | 35008 ft | 461 kts | 134° |
| 2026-04-23 13:26 | 42.24726 | 21.41776 | 35007 ft | 464 kts | 134° |
| 2026-04-23 13:27 | 42.20184 | 21.48000 | 35006 ft | 466 kts | 134° |
| 2026-04-23 13:27 | 42.15642 | 21.54212 | 35009 ft | 466 kts | 134° |
| 2026-04-23 13:28 | 42.11106 | 21.60400 | 35008 ft | 462 kts | 134° |
| 2026-04-23 13:28 | 42.06596 | 21.66548 | 35009 ft | 461 kts | 134° |
| 2026-04-23 13:29 | 42.02095 | 21.72665 | 35004 ft | 460 kts | 135° |
| 2026-04-23 13:29 | 41.97595 | 21.78773 | 35011 ft | 460 kts | 135° |
| 2026-04-23 13:30 | 41.93073 | 21.84886 | 35007 ft | 461 kts | 135° |
| 2026-04-23 13:30 | 41.88552 | 21.90984 | 35009 ft | 460 kts | 135° |
| 2026-04-23 13:31 | 41.84045 | 21.97060 | 35008 ft | 459 kts | 135° |
| 2026-04-23 13:31 | 41.79533 | 22.03123 | 35004 ft | 459 kts | 135° |
| 2026-04-23 13:32 | 41.74991 | 22.09152 | 35010 ft | 459 kts | 135° |
| 2026-04-23 13:32 | 41.70401 | 22.15105 | 35014 ft | 459 kts | 136° |
| 2026-04-23 13:33 | 41.65811 | 22.21042 | 35007 ft | 459 kts | 136° |
| 2026-04-23 13:33 | 41.61219 | 22.26987 | 35010 ft | 460 kts | 136° |
| 2026-04-23 13:34 | 41.56621 | 22.32929 | 35005 ft | 460 kts | 136° |
| 2026-04-23 13:34 | 41.52010 | 22.38868 | 35011 ft | 461 kts | 136° |
| 2026-04-23 13:35 | 41.47394 | 22.44801 | 35008 ft | 461 kts | 136° |
| 2026-04-23 13:35 | 41.42765 | 22.50738 | 35012 ft | 462 kts | 136° |
| 2026-04-23 13:36 | 41.38136 | 22.56664 | 35007 ft | 461 kts | 136° |
| 2026-04-23 13:36 | 41.33511 | 22.62572 | 35012 ft | 461 kts | 136° |
| 2026-04-23 13:37 | 41.28890 | 22.68465 | 35005 ft | 460 kts | 136° |
| 2026-04-23 13:37 | 41.24267 | 22.74349 | 35007 ft | 459 kts | 136° |
| 2026-04-23 13:38 | 41.19648 | 22.80205 | 35008 ft | 458 kts | 136° |
| 2026-04-23 13:38 | 41.15029 | 22.86055 | 35009 ft | 460 kts | 136° |
| 2026-04-23 13:39 | 41.10396 | 22.91911 | 35006 ft | 460 kts | 136° |
| 2026-04-23 13:39 | 41.05766 | 22.97752 | 35006 ft | 459 kts | 136° |
| 2026-04-23 13:40 | 41.01134 | 23.03596 | 35011 ft | 460 kts | 136° |
| 2026-04-23 13:40 | 40.96486 | 23.09433 | 35005 ft | 461 kts | 136° |
| 2026-04-23 13:41 | 40.91818 | 23.15272 | 35015 ft | 462 kts | 136° |
| 2026-04-23 13:41 | 40.87161 | 23.21104 | 35009 ft | 462 kts | 136° |
| 2026-04-23 13:42 | 40.82482 | 23.26936 | 35010 ft | 462 kts | 136° |
| 2026-04-23 13:42 | 40.77812 | 23.32753 | 35007 ft | 461 kts | 136° |
| 2026-04-23 13:43 | 40.73157 | 23.38566 | 35013 ft | 460 kts | 136° |
| 2026-04-23 13:43 | 40.68504 | 23.44342 | 35007 ft | 458 kts | 136° |
| 2026-04-23 13:44 | 40.63865 | 23.50090 | 35008 ft | 458 kts | 136° |
| 2026-04-23 13:44 | 40.59218 | 23.55833 | 35008 ft | 459 kts | 137° |
| 2026-04-23 13:45 | 40.55343 | 23.60611 | 35004 ft | 460 kts | 137° |
| 2026-04-23 13:45 | 40.49901 | 23.67309 | 35010 ft | 462 kts | 137° |
| 2026-04-23 13:46 | 40.45206 | 23.73077 | 35004 ft | 462 kts | 137° |
| 2026-04-23 13:46 | 40.40516 | 23.78834 | 35009 ft | 461 kts | 137° |
| 2026-04-23 13:47 | 40.35846 | 23.84554 | 35008 ft | 458 kts | 137° |
| 2026-04-23 13:47 | 40.31943 | 23.89329 | 35004 ft | 458 kts | 137° |
| 2026-04-23 13:48 | 40.27318 | 23.94975 | 35008 ft | 457 kts | 137° |
| 2026-04-23 13:48 | 40.22627 | 24.00682 | 35005 ft | 457 kts | 137° |
| 2026-04-23 13:49 | 40.17963 | 24.06335 | 35013 ft | 457 kts | 137° |
| 2026-04-23 13:49 | 40.13299 | 24.11981 | 35009 ft | 457 kts | 137° |
| 2026-04-23 13:50 | 40.08665 | 24.17595 | 35007 ft | 457 kts | 137° |
| 2026-04-23 13:50 | 40.04000 | 24.23231 | 35010 ft | 457 kts | 137° |
| 2026-04-23 13:51 | 39.99329 | 24.28868 | 35012 ft | 457 kts | 137° |
| 2026-04-23 13:51 | 39.94658 | 24.34492 | 35009 ft | 457 kts | 137° |
| 2026-04-23 13:52 | 39.89973 | 24.40106 | 35009 ft | 457 kts | 137° |
| 2026-04-23 13:52 | 39.85295 | 24.45715 | 35005 ft | 457 kts | 137° |
| 2026-04-23 13:53 | 39.80611 | 24.51321 | 35004 ft | 457 kts | 137° |
| 2026-04-23 13:53 | 39.75925 | 24.56910 | 35013 ft | 457 kts | 137° |
| 2026-04-23 13:54 | 39.71240 | 24.62497 | 35005 ft | 457 kts | 137° |
| 2026-04-23 13:54 | 39.66545 | 24.68075 | 35011 ft | 457 kts | 137° |
| 2026-04-23 13:55 | 39.61847 | 24.73645 | 35010 ft | 457 kts | 137° |
| 2026-04-23 13:55 | 39.57154 | 24.79207 | 35013 ft | 457 kts | 137° |
| 2026-04-23 13:56 | 39.52458 | 24.84762 | 35005 ft | 457 kts | 137° |
| 2026-04-23 13:56 | 39.47751 | 24.90307 | 35007 ft | 457 kts | 137° |
| 2026-04-23 13:57 | 39.43051 | 24.95845 | 35009 ft | 457 kts | 137° |
| 2026-04-23 13:57 | 39.38345 | 25.01381 | 35013 ft | 457 kts | 137° |
| 2026-04-23 13:58 | 39.33636 | 25.06900 | 35010 ft | 457 kts | 138° |
| 2026-04-23 13:58 | 39.28919 | 25.12419 | 35010 ft | 457 kts | 137° |
| 2026-04-23 13:59 | 39.24204 | 25.17929 | 35013 ft | 457 kts | 137° |
| 2026-04-23 13:59 | 39.19483 | 25.23439 | 35007 ft | 457 kts | 138° |
| 2026-04-23 14:00 | 39.15554 | 25.28010 | 35158 ft | 458 kts | 138° |
| 2026-04-23 14:00 | 39.12396 | 25.31684 | 35453 ft | 457 kts | 138° |
| 2026-04-23 14:00 | 39.10040 | 25.34424 | 35649 ft | 456 kts | 138° |
| 2026-04-23 14:00 | 39.07679 | 25.37162 | 35833 ft | 456 kts | 138° |
| 2026-04-23 14:01 | 39.05326 | 25.39891 | 36012 ft | 455 kts | 138° |
| 2026-04-23 14:01 | 39.02976 | 25.42616 | 36176 ft | 455 kts | 138° |
| 2026-04-23 14:01 | 39.00624 | 25.45341 | 36332 ft | 455 kts | 138° |
| 2026-04-23 14:01 | 38.98268 | 25.48065 | 36478 ft | 455 kts | 138° |
| 2026-04-23 14:02 | 38.95915 | 25.50780 | 36618 ft | 455 kts | 138° |
| 2026-04-23 14:02 | 38.93560 | 25.53494 | 36757 ft | 455 kts | 138° |
| 2026-04-23 14:02 | 38.91205 | 25.56210 | 36892 ft | 455 kts | 138° |
| 2026-04-23 14:02 | 38.88851 | 25.58922 | 37023 ft | 455 kts | 138° |
| 2026-04-23 14:03 | 38.86497 | 25.61634 | 37149 ft | 455 kts | 138° |
| 2026-04-23 14:03 | 38.84137 | 25.64346 | 37275 ft | 455 kts | 138° |
| 2026-04-23 14:03 | 38.81784 | 25.67044 | 37400 ft | 455 kts | 138° |
| 2026-04-23 14:03 | 38.79424 | 25.69752 | 37524 ft | 455 kts | 138° |
| 2026-04-23 14:04 | 38.77069 | 25.72455 | 37649 ft | 454 kts | 138° |
| 2026-04-23 14:04 | 38.74715 | 25.75154 | 37773 ft | 454 kts | 138° |
| 2026-04-23 14:04 | 38.72363 | 25.77846 | 37929 ft | 453 kts | 138° |
| 2026-04-23 14:05 | 38.67652 | 25.83235 | 38009 ft | 455 kts | 138° |
| 2026-04-23 14:05 | 38.62964 | 25.88589 | 38009 ft | 455 kts | 138° |
| 2026-04-23 14:06 | 38.58205 | 25.94005 | 38009 ft | 455 kts | 138° |
| 2026-04-23 14:06 | 38.53491 | 25.99360 | 38009 ft | 457 kts | 138° |
| 2026-04-23 14:07 | 38.48720 | 26.04771 | 38006 ft | 460 kts | 138° |
| 2026-04-23 14:07 | 38.41497 | 26.12942 | 38023 ft | 460 kts | 138° |
| 2026-04-23 14:08 | 38.36743 | 26.18306 | 38034 ft | 459 kts | 138° |
| 2026-04-23 14:08 | 38.31937 | 26.23729 | 38034 ft | 458 kts | 138° |
| 2026-04-23 14:09 | 38.27200 | 26.29049 | 38032 ft | 457 kts | 139° |
| 2026-04-23 14:09 | 38.22434 | 26.34401 | 38029 ft | 457 kts | 139° |
| 2026-04-23 14:10 | 38.17676 | 26.39738 | 38218 ft | 455 kts | 139° |
| 2026-04-23 14:10 | 38.15301 | 26.42396 | 38354 ft | 455 kts | 139° |
| 2026-04-23 14:10 | 38.12928 | 26.45050 | 38478 ft | 454 kts | 139° |
| 2026-04-23 14:11 | 38.10558 | 26.47697 | 38604 ft | 454 kts | 139° |
| 2026-04-23 14:11 | 38.08190 | 26.50341 | 38727 ft | 453 kts | 139° |
| 2026-04-23 14:11 | 38.05828 | 26.52977 | 38851 ft | 452 kts | 139° |
| 2026-04-23 14:11 | 38.03466 | 26.55612 | 38970 ft | 451 kts | 139° |
| 2026-04-23 14:12 | 38.01113 | 26.58235 | 39099 ft | 450 kts | 139° |
| 2026-04-23 14:12 | 37.98763 | 26.60849 | 39223 ft | 449 kts | 139° |
| 2026-04-23 14:12 | 37.96418 | 26.63454 | 39347 ft | 448 kts | 139° |
| 2026-04-23 14:12 | 37.94075 | 26.66056 | 39484 ft | 447 kts | 139° |
| 2026-04-23 14:13 | 37.91742 | 26.68646 | 39595 ft | 446 kts | 139° |
| 2026-04-23 14:13 | 37.89415 | 26.71226 | 39718 ft | 444 kts | 139° |
| 2026-04-23 14:13 | 37.87101 | 26.73788 | 39947 ft | 440 kts | 139° |
| 2026-04-23 14:13 | 37.84807 | 26.76327 | 40151 ft | 437 kts | 139° |
| 2026-04-23 14:14 | 37.80222 | 26.81392 | 40222 ft | 438 kts | 139° |
| 2026-04-23 14:14 | 37.75616 | 26.86479 | 40225 ft | 442 kts | 139° |
| 2026-04-23 14:15 | 37.70982 | 26.91580 | 40360 ft | 441 kts | 139° |
| 2026-04-23 14:15 | 37.66381 | 26.96632 | 40479 ft | 441 kts | 139° |
| 2026-04-23 14:16 | 37.61749 | 27.01717 | 40561 ft | 442 kts | 139° |
| 2026-04-23 14:16 | 37.57112 | 27.06799 | 40635 ft | 442 kts | 139° |
| 2026-04-23 14:17 | 37.52462 | 27.11886 | 40705 ft | 443 kts | 139° |
| 2026-04-23 14:17 | 37.47806 | 27.16974 | 40771 ft | 443 kts | 139° |
| 2026-04-23 14:18 | 37.43141 | 27.22058 | 40918 ft | 441 kts | 139° |
| 2026-04-23 14:18 | 37.38504 | 27.27100 | 41009 ft | 441 kts | 139° |
| 2026-04-23 14:19 | 37.33848 | 27.32165 | 41011 ft | 443 kts | 139° |
| 2026-04-23 14:19 | 37.29173 | 27.37240 | 41007 ft | 445 kts | 139° |
| 2026-04-23 14:20 | 37.24468 | 27.42332 | 41009 ft | 447 kts | 139° |
| 2026-04-23 14:20 | 37.19743 | 27.47439 | 41008 ft | 449 kts | 139° |
| 2026-04-23 14:21 | 37.14998 | 27.52555 | 41010 ft | 451 kts | 139° |
| 2026-04-23 14:21 | 37.10229 | 27.57695 | 41010 ft | 453 kts | 139° |
| 2026-04-23 14:22 | 37.05437 | 27.62852 | 41005 ft | 455 kts | 139° |
| 2026-04-23 14:22 | 37.00623 | 27.68026 | 41008 ft | 457 kts | 139° |
| 2026-04-23 14:23 | 36.95781 | 27.73212 | 41031 ft | 458 kts | 139° |
| 2026-04-23 14:23 | 36.90932 | 27.78388 | 41032 ft | 459 kts | 139° |
| 2026-04-23 14:24 | 36.86078 | 27.83564 | 41034 ft | 458 kts | 139° |
| 2026-04-23 14:24 | 36.81231 | 27.88734 | 41034 ft | 458 kts | 139° |
| 2026-04-23 14:25 | 36.76380 | 27.93899 | 41035 ft | 458 kts | 139° |
| 2026-04-23 14:25 | 36.73991 | 27.96453 | 41625 ft | 430 kts | 139° |
| 2026-04-23 14:25 | 36.71760 | 27.98863 | 42157 ft | 427 kts | 139° |
| 2026-04-23 14:26 | 36.67235 | 28.03638 | 41716 ft | 439 kts | 140° |
| 2026-04-23 14:26 | 36.64918 | 28.06071 | 41930 ft | 431 kts | 140° |
| 2026-04-23 14:26 | 36.62626 | 28.08480 | 41999 ft | 431 kts | 140° |
| 2026-04-23 14:27 | 36.58051 | 28.13315 | 42007 ft | 433 kts | 140° |
| 2026-04-23 14:27 | 36.55718 | 28.15782 | 41444 ft | 445 kts | 140° |
| 2026-04-23 14:27 | 36.53341 | 28.18296 | 40690 ft | 451 kts | 140° |
| 2026-04-23 14:28 | 36.50943 | 28.20829 | 40033 ft | 453 kts | 140° |
| 2026-04-23 14:28 | 36.48539 | 28.23365 | 39438 ft | 454 kts | 140° |
| 2026-04-23 14:28 | 36.46125 | 28.25905 | 38851 ft | 454 kts | 140° |
| 2026-04-23 14:28 | 36.43766 | 28.28382 | 38672 ft | 459 kts | 144° |
| 2026-04-23 14:29 | 36.41330 | 28.30927 | 37202 ft | 479 kts | 146° |
| 2026-04-23 14:29 | 36.38727 | 28.33634 | 35981 ft | 495 kts | 147° |
| 2026-04-23 14:29 | 36.36074 | 28.36400 | 35174 ft | 502 kts | 146° |
| 2026-04-23 14:29 | 36.33395 | 28.39208 | 35225 ft | 505 kts | 146° |
| 2026-04-23 14:30 | 36.30719 | 28.42028 | 35525 ft | 505 kts | 146° |
| 2026-04-23 14:30 | 36.28043 | 28.44846 | 35796 ft | 504 kts | 146° |
| 2026-04-23 14:30 | 36.25370 | 28.47652 | 36038 ft | 503 kts | 146° |
| 2026-04-23 14:30 | 36.22698 | 28.50451 | 36265 ft | 503 kts | 146° |
| 2026-04-23 14:31 | 36.20026 | 28.53243 | 36455 ft | 503 kts | 146° |
| 2026-04-23 14:31 | 36.17356 | 28.56027 | 36699 ft | 502 kts | 146° |
| 2026-04-23 14:31 | 36.14682 | 28.58806 | 36909 ft | 501 kts | 146° |
| 2026-04-23 14:31 | 36.12016 | 28.61570 | 37112 ft | 501 kts | 146° |
| 2026-04-23 14:32 | 36.09346 | 28.64337 | 37306 ft | 500 kts | 146° |
| 2026-04-23 14:32 | 36.06681 | 28.67105 | 37489 ft | 500 kts | 146° |
| 2026-04-23 14:32 | 36.04914 | 28.68940 | 37622 ft | 500 kts | 146° |
| 2026-04-23 14:32 | 36.02257 | 28.71696 | 37830 ft | 499 kts | 146° |
| 2026-04-23 14:33 | 35.96932 | 28.77213 | 37894 ft | 499 kts | 146° |
| 2026-04-23 14:33 | 35.91607 | 28.82719 | 37899 ft | 499 kts | 146° |
| 2026-04-23 14:34 | 35.86285 | 28.88205 | 37887 ft | 498 kts | 146° |
| 2026-04-23 14:34 | 35.80960 | 28.93680 | 37898 ft | 498 kts | 146° |
| 2026-04-23 14:35 | 35.75634 | 28.99149 | 37893 ft | 498 kts | 146° |
| 2026-04-23 14:35 | 35.70306 | 29.04615 | 37896 ft | 498 kts | 146° |
| 2026-04-23 14:36 | 35.64980 | 29.10070 | 37903 ft | 498 kts | 146° |
| 2026-04-23 14:36 | 35.59655 | 29.15523 | 37875 ft | 498 kts | 146° |
| 2026-04-23 14:37 | 35.54319 | 29.20964 | 37894 ft | 498 kts | 147° |
| 2026-04-23 14:37 | 35.48980 | 29.26402 | 37891 ft | 499 kts | 147° |
| 2026-04-23 14:38 | 35.43647 | 29.31837 | 37902 ft | 499 kts | 147° |
| 2026-04-23 14:38 | 35.38335 | 29.37224 | 37903 ft | 498 kts | 147° |
| 2026-04-23 14:39 | 35.32995 | 29.42624 | 37899 ft | 498 kts | 147° |
| 2026-04-23 14:39 | 35.27655 | 29.48026 | 37907 ft | 498 kts | 147° |
| 2026-04-23 14:40 | 35.22307 | 29.53429 | 37899 ft | 498 kts | 147° |
| 2026-04-23 14:40 | 35.16961 | 29.58816 | 37904 ft | 498 kts | 147° |
| 2026-04-23 14:41 | 35.11605 | 29.64206 | 37909 ft | 499 kts | 147° |
| 2026-04-23 14:41 | 35.06244 | 29.69582 | 37912 ft | 499 kts | 147° |
| 2026-04-23 14:42 | 35.00879 | 29.74957 | 37918 ft | 499 kts | 147° |
| 2026-04-23 14:42 | 34.95520 | 29.80324 | 37896 ft | 498 kts | 147° |
| 2026-04-23 14:43 | 34.90166 | 29.85680 | 37918 ft | 498 kts | 147° |
| 2026-04-23 14:43 | 34.84814 | 29.91020 | 37930 ft | 497 kts | 147° |
| 2026-04-23 14:44 | 34.79458 | 29.96348 | 37931 ft | 497 kts | 147° |
| 2026-04-23 14:44 | 34.73864 | 30.01119 | 37922 ft | 484 kts | 160° |
| 2026-04-23 14:45 | 34.67816 | 30.04652 | 37907 ft | 482 kts | 161° |
| 2026-04-23 14:45 | 34.61771 | 30.08185 | 37914 ft | 482 kts | 161° |
| 2026-04-23 14:46 | 34.55759 | 30.11691 | 37899 ft | 482 kts | 161° |
| 2026-04-23 14:46 | 34.49708 | 30.15208 | 37908 ft | 482 kts | 161° |
| 2026-04-23 14:47 | 34.43656 | 30.18727 | 37919 ft | 482 kts | 161° |
| 2026-04-23 14:47 | 34.37602 | 30.22239 | 37923 ft | 482 kts | 161° |
| 2026-04-23 14:48 | 34.31548 | 30.25743 | 37928 ft | 482 kts | 161° |
| 2026-04-23 14:48 | 34.25492 | 30.29241 | 37932 ft | 482 kts | 161° |
| 2026-04-23 14:49 | 34.19438 | 30.32737 | 37919 ft | 482 kts | 161° |
| 2026-04-23 14:49 | 34.13392 | 30.36228 | 38127 ft | 482 kts | 161° |
| 2026-04-23 14:50 | 34.10366 | 30.37974 | 38320 ft | 481 kts | 161° |
| 2026-04-23 14:50 | 34.07344 | 30.39712 | 38500 ft | 481 kts | 161° |
| 2026-04-23 14:50 | 34.04323 | 30.41447 | 38638 ft | 481 kts | 161° |
| 2026-04-23 14:50 | 34.01299 | 30.43184 | 38768 ft | 481 kts | 161° |
| 2026-04-23 14:51 | 33.98282 | 30.44918 | 38895 ft | 481 kts | 161° |
| 2026-04-23 14:51 | 33.95264 | 30.46654 | 39017 ft | 481 kts | 161° |
| 2026-04-23 14:51 | 33.92247 | 30.48384 | 39136 ft | 480 kts | 161° |
| 2026-04-23 14:51 | 33.89229 | 30.50108 | 39235 ft | 480 kts | 161° |
| 2026-04-23 14:52 | 33.86213 | 30.51829 | 39366 ft | 480 kts | 161° |
| 2026-04-23 14:52 | 33.83196 | 30.53554 | 39489 ft | 480 kts | 161° |
| 2026-04-23 14:52 | 33.80186 | 30.55280 | 39606 ft | 480 kts | 161° |
| 2026-04-23 14:52 | 33.77173 | 30.57003 | 39725 ft | 479 kts | 161° |
| 2026-04-23 14:53 | 33.74165 | 30.58720 | 39878 ft | 478 kts | 161° |
| 2026-04-23 14:53 | 33.71152 | 30.60434 | 39932 ft | 479 kts | 161° |
| 2026-04-23 14:53 | 33.65117 | 30.63858 | 39927 ft | 480 kts | 161° |
| 2026-04-23 14:54 | 33.59084 | 30.67282 | 39928 ft | 480 kts | 161° |
| 2026-04-23 14:54 | 33.53047 | 30.70714 | 39926 ft | 480 kts | 161° |
| 2026-04-23 14:55 | 33.47053 | 30.74119 | 39931 ft | 480 kts | 161° |
| 2026-04-23 14:55 | 33.41016 | 30.77535 | 39931 ft | 480 kts | 161° |
| 2026-04-23 14:56 | 33.34980 | 30.80943 | 39910 ft | 480 kts | 161° |
| 2026-04-23 14:56 | 33.28938 | 30.84352 | 39926 ft | 480 kts | 161° |
| 2026-04-23 14:57 | 33.22891 | 30.87753 | 39935 ft | 481 kts | 161° |
| 2026-04-23 14:57 | 33.16840 | 30.91153 | 39944 ft | 481 kts | 161° |
| 2026-04-23 14:58 | 33.10735 | 30.94347 | 39945 ft | 473 kts | 170° |
| 2026-04-23 14:58 | 33.04374 | 30.95636 | 39930 ft | 461 kts | 181° |
| 2026-04-23 14:59 | 32.97985 | 30.96341 | 39934 ft | 461 kts | 181° |
| 2026-04-23 14:59 | 32.91600 | 30.97048 | 39941 ft | 461 kts | 181° |
| 2026-04-23 15:00 | 32.85209 | 30.97762 | 39931 ft | 461 kts | 181° |
| 2026-04-23 15:00 | 32.78825 | 30.98482 | 39938 ft | 461 kts | 181° |
| 2026-04-23 15:01 | 32.72437 | 30.99192 | 39940 ft | 461 kts | 181° |
| 2026-04-23 15:01 | 32.66053 | 30.99905 | 39946 ft | 461 kts | 181° |
| 2026-04-23 15:02 | 32.59665 | 31.00625 | 39932 ft | 461 kts | 181° |
| 2026-04-23 15:02 | 32.53319 | 31.01331 | 39939 ft | 461 kts | 181° |
| 2026-04-23 15:03 | 32.46937 | 31.02034 | 39945 ft | 461 kts | 181° |
| 2026-04-23 15:03 | 32.40549 | 31.02732 | 39948 ft | 461 kts | 181° |
| 2026-04-23 15:04 | 32.34163 | 31.03430 | 39930 ft | 461 kts | 181° |
| 2026-04-23 15:04 | 32.27779 | 31.04136 | 39941 ft | 461 kts | 181° |
| 2026-04-23 15:05 | 32.21400 | 31.04846 | 39948 ft | 461 kts | 181° |
| 2026-04-23 15:05 | 32.15017 | 31.05550 | 39950 ft | 460 kts | 181° |
| 2026-04-23 15:06 | 32.08636 | 31.06255 | 39938 ft | 460 kts | 181° |
| 2026-04-23 15:06 | 32.02265 | 31.06952 | 39945 ft | 460 kts | 181° |
| 2026-04-23 15:07 | 31.95885 | 31.07645 | 39953 ft | 460 kts | 181° |
| 2026-04-23 15:07 | 31.89504 | 31.08332 | 39950 ft | 460 kts | 181° |
| 2026-04-23 15:08 | 31.83129 | 31.09012 | 39951 ft | 460 kts | 181° |
| 2026-04-23 15:09 | 31.73564 | 31.10037 | 39954 ft | 460 kts | 181° |
| 2026-04-23 15:09 | 31.67188 | 31.10724 | 39952 ft | 460 kts | 181° |
| 2026-04-23 15:10 | 31.61885 | 31.11299 | 39935 ft | 460 kts | 181° |
| 2026-04-23 15:10 | 31.54440 | 31.12087 | 39945 ft | 460 kts | 181° |
| 2026-04-23 15:11 | 31.48056 | 31.12972 | 39951 ft | 463 kts | 178° |
| 2026-04-23 15:11 | 31.41698 | 31.14232 | 39948 ft | 464 kts | 176° |
| 2026-04-23 15:12 | 31.35335 | 31.15543 | 39936 ft | 464 kts | 177° |
| 2026-04-23 15:12 | 31.28977 | 31.16760 | 39944 ft | 463 kts | 178° |
| 2026-04-23 15:13 | 31.22613 | 31.17929 | 39944 ft | 463 kts | 178° |
| 2026-04-23 15:13 | 31.16256 | 31.19098 | 39946 ft | 463 kts | 178° |
| 2026-04-23 15:14 | 31.09903 | 31.20278 | 39917 ft | 462 kts | 178° |
| 2026-04-23 15:14 | 31.03567 | 31.21469 | 39914 ft | 461 kts | 178° |
| 2026-04-23 15:15 | 30.97277 | 31.22638 | 39915 ft | 461 kts | 178° |
| 2026-04-23 15:15 | 30.90948 | 31.23803 | 39910 ft | 460 kts | 178° |
| 2026-04-23 15:16 | 30.84616 | 31.24976 | 39904 ft | 460 kts | 178° |
| 2026-04-23 15:16 | 30.78290 | 31.26150 | 39914 ft | 461 kts | 178° |
| 2026-04-23 15:17 | 30.71957 | 31.27316 | 39917 ft | 461 kts | 178° |
| 2026-04-23 15:17 | 30.65619 | 31.28480 | 39920 ft | 461 kts | 178° |
| 2026-04-23 15:18 | 30.59285 | 31.29651 | 39904 ft | 461 kts | 178° |
| 2026-04-23 15:18 | 30.52951 | 31.30822 | 39913 ft | 461 kts | 178° |
| 2026-04-23 15:19 | 30.46608 | 31.31993 | 39915 ft | 461 kts | 178° |
| 2026-04-23 15:19 | 30.40269 | 31.33159 | 39916 ft | 461 kts | 178° |
| 2026-04-23 15:19 | 30.37110 | 31.33740 | 39492 ft | 460 kts | 178° |
| 2026-04-23 15:20 | 30.35021 | 31.34124 | 39119 ft | 459 kts | 178° |
| 2026-04-23 15:20 | 30.31863 | 31.34703 | 38538 ft | 460 kts | 178° |
| 2026-04-23 15:20 | 30.28703 | 31.35281 | 37803 ft | 461 kts | 177° |
| 2026-04-23 15:20 | 30.25531 | 31.35860 | 37083 ft | 462 kts | 177° |
| 2026-04-23 15:21 | 30.22350 | 31.36441 | 36348 ft | 463 kts | 177° |
| 2026-04-23 15:21 | 30.19164 | 31.37011 | 35615 ft | 463 kts | 181° |
| 2026-04-23 15:21 | 30.15972 | 31.37478 | 34952 ft | 462 kts | 183° |
| 2026-04-23 15:21 | 30.12768 | 31.37876 | 34381 ft | 463 kts | 177° |
| 2026-04-23 15:22 | 30.09594 | 31.38472 | 34550 ft | 465 kts | 172° |
| 2026-04-23 15:22 | 30.06475 | 31.39606 | 34757 ft | 472 kts | 166° |
| 2026-04-23 15:22 | 30.03365 | 31.40830 | 34901 ft | 474 kts | 167° |
| 2026-04-23 15:23 | 29.97050 | 31.43028 | 34897 ft | 474 kts | 169° |
| 2026-04-23 15:23 | 29.90698 | 31.45039 | 34903 ft | 474 kts | 170° |
| 2026-04-23 15:24 | 29.84345 | 31.47073 | 34903 ft | 474 kts | 169° |
| 2026-04-23 15:24 | 29.78005 | 31.49166 | 34918 ft | 474 kts | 169° |
| 2026-04-23 15:25 | 29.71676 | 31.51273 | 34918 ft | 474 kts | 169° |
| 2026-04-23 15:25 | 29.65339 | 31.53367 | 34934 ft | 473 kts | 169° |
| 2026-04-23 15:26 | 29.59014 | 31.55435 | 34918 ft | 473 kts | 169° |
| 2026-04-23 15:26 | 29.52697 | 31.57500 | 34939 ft | 472 kts | 169° |
| 2026-04-23 15:27 | 29.46423 | 31.59550 | 34936 ft | 472 kts | 169° |
| 2026-04-23 15:27 | 29.40111 | 31.61611 | 34938 ft | 474 kts | 169° |
| 2026-04-23 15:28 | 29.33731 | 31.63687 | 34950 ft | 474 kts | 169° |
| 2026-04-23 15:28 | 29.27412 | 31.65749 | 34235 ft | 471 kts | 169° |
| 2026-04-23 15:28 | 29.24262 | 31.66772 | 33429 ft | 472 kts | 169° |
| 2026-04-23 15:29 | 29.21099 | 31.67793 | 32560 ft | 473 kts | 169° |
| 2026-04-23 15:29 | 29.17921 | 31.68818 | 31672 ft | 476 kts | 169° |
| 2026-04-23 15:29 | 29.14727 | 31.69852 | 30774 ft | 478 kts | 169° |
| 2026-04-23 15:29 | 29.11515 | 31.70894 | 29826 ft | 481 kts | 169° |
| 2026-04-23 15:30 | 29.08288 | 31.71940 | 28724 ft | 484 kts | 168° |
| 2026-04-23 15:30 | 29.05034 | 31.72997 | 27545 ft | 488 kts | 171° |
| 2026-04-23 15:30 | 29.01745 | 31.73991 | 26430 ft | 489 kts | 173° |
| 2026-04-23 15:30 | 28.98427 | 31.74871 | 25352 ft | 490 kts | 174° |
| 2026-04-23 15:31 | 28.95088 | 31.75636 | 24340 ft | 489 kts | 176° |
| 2026-04-23 15:31 | 28.91733 | 31.76285 | 23342 ft | 488 kts | 178° |
| 2026-04-23 15:31 | 28.88368 | 31.76817 | 22229 ft | 487 kts | 179° |
| 2026-04-23 15:31 | 28.85020 | 31.77465 | 21177 ft | 491 kts | 167° |
| 2026-04-23 15:32 | 28.81824 | 31.78823 | 20366 ft | 490 kts | 159° |
| 2026-04-23 15:32 | 28.78769 | 31.80488 | 19920 ft | 484 kts | 156° |
| 2026-04-23 15:32 | 28.75742 | 31.82157 | 19940 ft | 483 kts | 158° |
| 2026-04-23 15:32 | 28.72628 | 31.83574 | 19936 ft | 481 kts | 163° |
| 2026-04-23 15:33 | 28.69447 | 31.84738 | 19941 ft | 480 kts | 167° |
| 2026-04-23 15:33 | 28.66231 | 31.85722 | 19929 ft | 479 kts | 169° |
| 2026-04-23 15:33 | 28.62996 | 31.86612 | 19931 ft | 478 kts | 169° |
| 2026-04-23 15:33 | 28.59753 | 31.87491 | 19936 ft | 479 kts | 169° |
| 2026-04-23 15:34 | 28.56521 | 31.88403 | 19933 ft | 479 kts | 168° |
| 2026-04-23 15:34 | 28.53297 | 31.89368 | 19934 ft | 479 kts | 168° |
| 2026-04-23 15:34 | 28.50084 | 31.90379 | 19930 ft | 479 kts | 167° |
| 2026-04-23 15:34 | 28.46876 | 31.91418 | 19939 ft | 480 kts | 167° |
| 2026-04-23 15:35 | 28.43669 | 31.92462 | 19932 ft | 479 kts | 167° |
| 2026-04-23 15:35 | 28.40499 | 31.93489 | 19936 ft | 479 kts | 167° |
| 2026-04-23 15:35 | 28.37291 | 31.94515 | 19932 ft | 479 kts | 167° |
| 2026-04-23 15:35 | 28.34082 | 31.95529 | 19932 ft | 479 kts | 167° |
| 2026-04-23 15:36 | 28.30870 | 31.96535 | 19926 ft | 479 kts | 167° |
| 2026-04-23 15:36 | 28.27650 | 31.97541 | 19928 ft | 479 kts | 167° |
| 2026-04-23 15:36 | 28.24435 | 31.98547 | 19930 ft | 479 kts | 167° |
| 2026-04-23 15:36 | 28.21216 | 31.99557 | 19929 ft | 479 kts | 167° |
| 2026-04-23 15:37 | 28.18007 | 32.00561 | 19926 ft | 475 kts | 167° |
| 2026-04-23 15:37 | 28.14815 | 32.01563 | 19930 ft | 478 kts | 167° |
| 2026-04-23 15:37 | 28.11597 | 32.02575 | 20232 ft | 481 kts | 167° |
| 2026-04-23 15:37 | 28.08371 | 32.03591 | 20611 ft | 482 kts | 167° |
| 2026-04-23 15:38 | 28.05127 | 32.04609 | 20949 ft | 484 kts | 167° |
| 2026-04-23 15:38 | 28.01871 | 32.05626 | 21268 ft | 487 kts | 168° |
| 2026-04-23 15:38 | 27.98597 | 32.06658 | 21589 ft | 489 kts | 167° |
| 2026-04-23 15:38 | 27.95316 | 32.07703 | 21860 ft | 491 kts | 167° |
| 2026-04-23 15:39 | 27.92027 | 32.08756 | 22193 ft | 493 kts | 167° |
| 2026-04-23 15:39 | 27.88723 | 32.09816 | 22497 ft | 495 kts | 167° |
| 2026-04-23 15:39 | 27.85401 | 32.10889 | 22779 ft | 497 kts | 167° |
| 2026-04-23 15:39 | 27.82071 | 32.11964 | 23060 ft | 499 kts | 167° |
| 2026-04-23 15:40 | 27.78727 | 32.13040 | 23349 ft | 500 kts | 168° |
| 2026-04-23 15:40 | 27.75378 | 32.14112 | 23666 ft | 500 kts | 168° |
| 2026-04-23 15:40 | 27.72026 | 32.15178 | 24003 ft | 499 kts | 168° |
| 2026-04-23 15:40 | 27.68757 | 32.16214 | 24353 ft | 498 kts | 168° |
| 2026-04-23 15:41 | 27.65434 | 32.17268 | 24726 ft | 496 kts | 168° |
| 2026-04-23 15:41 | 27.62113 | 32.18321 | 25097 ft | 495 kts | 168° |
| 2026-04-23 15:41 | 27.58806 | 32.19373 | 25446 ft | 493 kts | 168° |
| 2026-04-23 15:41 | 27.55506 | 32.20427 | 25838 ft | 491 kts | 168° |
| 2026-04-23 15:42 | 27.52226 | 32.21472 | 26229 ft | 490 kts | 169° |
| 2026-04-23 15:42 | 27.48948 | 32.22516 | 26614 ft | 488 kts | 169° |
| 2026-04-23 15:42 | 27.45691 | 32.23550 | 27020 ft | 486 kts | 169° |
| 2026-04-23 15:42 | 27.42436 | 32.24580 | 27417 ft | 485 kts | 169° |
| 2026-04-23 15:43 | 27.39197 | 32.25604 | 27801 ft | 482 kts | 170° |
| 2026-04-23 15:43 | 27.35965 | 32.26624 | 28221 ft | 481 kts | 170° |
| 2026-04-23 15:43 | 27.32752 | 32.27638 | 28644 ft | 479 kts | 170° |
| 2026-04-23 15:43 | 27.29547 | 32.28649 | 28869 ft | 479 kts | 170° |
| 2026-04-23 15:44 | 27.26344 | 32.29659 | 28601 ft | 478 kts | 170° |
| 2026-04-23 15:44 | 27.23142 | 32.30670 | 28343 ft | 478 kts | 170° |
| 2026-04-23 15:44 | 27.19985 | 32.31669 | 28074 ft | 478 kts | 170° |
| 2026-04-23 15:44 | 27.16739 | 32.32695 | 27801 ft | 479 kts | 170° |
| 2026-04-23 15:45 | 27.13520 | 32.33711 | 27533 ft | 480 kts | 170° |
| 2026-04-23 15:45 | 27.10344 | 32.34713 | 27279 ft | 482 kts | 170° |
| 2026-04-23 15:45 | 27.07109 | 32.35731 | 27005 ft | 484 kts | 170° |
| 2026-04-23 15:45 | 27.03865 | 32.36751 | 26750 ft | 485 kts | 170° |
| 2026-04-23 15:46 | 27.00609 | 32.37778 | 26521 ft | 486 kts | 170° |
| 2026-04-23 15:46 | 26.97351 | 32.38802 | 26268 ft | 487 kts | 170° |
| 2026-04-23 15:46 | 26.94087 | 32.39822 | 26016 ft | 487 kts | 170° |
| 2026-04-23 15:46 | 26.90819 | 32.40845 | 25772 ft | 488 kts | 170° |
| 2026-04-23 15:47 | 26.87546 | 32.41874 | 25529 ft | 489 kts | 169° |
| 2026-04-23 15:47 | 26.84262 | 32.42910 | 25268 ft | 490 kts | 170° |
| 2026-04-23 15:47 | 26.80978 | 32.43941 | 25031 ft | 491 kts | 169° |
| 2026-04-23 15:47 | 26.77687 | 32.44972 | 24797 ft | 492 kts | 169° |
| 2026-04-23 15:48 | 26.74391 | 32.46004 | 24572 ft | 493 kts | 169° |
| 2026-04-23 15:48 | 26.71088 | 32.47037 | 24337 ft | 493 kts | 169° |
| 2026-04-23 15:48 | 26.67779 | 32.48072 | 23878 ft | 495 kts | 169° |
| 2026-04-23 15:48 | 26.64446 | 32.49111 | 22671 ft | 498 kts | 169° |
| 2026-04-23 15:49 | 26.61143 | 32.50143 | 22107 ft | 487 kts | 168° |
| 2026-04-23 15:49 | 26.57915 | 32.51158 | 21453 ft | 478 kts | 168° |
| 2026-04-23 15:49 | 26.54739 | 32.52157 | 20711 ft | 471 kts | 168° |
| 2026-04-23 15:49 | 26.51598 | 32.53139 | 19931 ft | 467 kts | 168° |
| 2026-04-23 15:50 | 26.48479 | 32.54107 | 19162 ft | 464 kts | 168° |
| 2026-04-23 15:50 | 26.45385 | 32.55066 | 18450 ft | 459 kts | 168° |
| 2026-04-23 15:50 | 26.42315 | 32.56016 | 17709 ft | 455 kts | 167° |
| 2026-04-23 15:50 | 26.39281 | 32.56958 | 16969 ft | 450 kts | 167° |
| 2026-04-23 15:51 | 26.36280 | 32.57892 | 16270 ft | 446 kts | 167° |
| 2026-04-23 15:51 | 26.33306 | 32.58816 | 15602 ft | 441 kts | 166° |
| 2026-04-23 15:51 | 26.30366 | 32.59729 | 14915 ft | 437 kts | 166° |
| 2026-04-23 15:51 | 26.27453 | 32.60634 | 14243 ft | 433 kts | 166° |
| 2026-04-23 15:52 | 26.24564 | 32.61530 | 13565 ft | 429 kts | 166° |
| 2026-04-23 15:52 | 26.21737 | 32.62407 | 12825 ft | 425 kts | 166° |
| 2026-04-23 15:52 | 26.18901 | 32.63287 | 12106 ft | 421 kts | 165° |
| 2026-04-23 15:52 | 26.16097 | 32.64155 | 11532 ft | 414 kts | 165° |
| 2026-04-23 15:53 | 26.13382 | 32.65000 | 11397 ft | 396 kts | 165° |
| 2026-04-23 15:53 | 26.10779 | 32.65808 | 11271 ft | 380 kts | 165° |
| 2026-04-23 15:53 | 26.08286 | 32.66580 | 11152 ft | 364 kts | 165° |
| 2026-04-23 15:53 | 26.05890 | 32.67322 | 11035 ft | 350 kts | 165° |
| 2026-04-23 15:54 | 26.03584 | 32.68034 | 10914 ft | 338 kts | 165° |
| 2026-04-23 15:54 | 26.01357 | 32.68722 | 10792 ft | 326 kts | 165° |
| 2026-04-23 15:54 | 25.99211 | 32.69383 | 10673 ft | 315 kts | 165° |
| 2026-04-23 15:54 | 25.97130 | 32.70023 | 10458 ft | 307 kts | 165° |
| 2026-04-23 15:55 | 25.95078 | 32.70654 | 10140 ft | 305 kts | 164° |
| 2026-04-23 15:55 | 25.93040 | 32.71282 | 9811 ft | 302 kts | 164° |
| 2026-04-23 15:55 | 25.91017 | 32.71904 | 9429 ft | 301 kts | 164° |
| 2026-04-23 15:55 | 25.89002 | 32.72524 | 9013 ft | 300 kts | 164° |
| 2026-04-23 15:56 | 25.86991 | 32.73145 | 8601 ft | 299 kts | 164° |
| 2026-04-23 15:56 | 25.84988 | 32.73762 | 8189 ft | 299 kts | 164° |
| 2026-04-23 15:56 | 25.82991 | 32.74376 | 7762 ft | 297 kts | 164° |
| 2026-04-23 15:56 | 25.81020 | 32.74982 | 7576 ft | 288 kts | 164° |
| 2026-04-23 15:57 | 25.79125 | 32.75564 | 7452 ft | 277 kts | 164° |
| 2026-04-23 15:57 | 25.77303 | 32.76125 | 7330 ft | 266 kts | 164° |
| 2026-04-23 15:57 | 25.75549 | 32.76666 | 7207 ft | 258 kts | 164° |
| 2026-04-23 15:57 | 25.73805 | 32.77005 | 7087 ft | 254 kts | 184° |
| 2026-04-23 15:58 | 25.72126 | 32.76510 | 6973 ft | 250 kts | 211° |
| 2026-04-23 15:58 | 25.70848 | 32.75263 | 6853 ft | 244 kts | 238° |
| 2026-04-23 15:58 | 25.70203 | 32.73557 | 6735 ft | 239 kts | 264° |
| 2026-04-23 15:58 | 25.70268 | 32.71742 | 6617 ft | 235 kts | 288° |
| 2026-04-23 15:59 | 25.70995 | 32.70147 | 6497 ft | 232 kts | 312° |
| 2026-04-23 15:59 | 25.72235 | 32.69038 | 6380 ft | 230 kts | 335° |
| 2026-04-23 15:59 | 25.73736 | 32.68442 | 6254 ft | 230 kts | 346° |
| 2026-04-23 15:59 | 25.75395 | 32.68376 | 6143 ft | 257 kts | 12° |
| 2026-04-23 16:00 | 25.77007 | 32.69305 | 5969 ft | 271 kts | 43° |
| 2026-04-23 16:00 | 25.77919 | 32.71125 | 5710 ft | 277 kts | 78° |
| 2026-04-23 16:00 | 25.77753 | 32.73242 | 5431 ft | 281 kts | 112° |
| 2026-04-23 16:00 | 25.76839 | 32.75123 | 5202 ft | 274 kts | 116° |
| 2026-04-23 16:01 | 25.76217 | 32.77087 | 4848 ft | 269 kts | 95° |
| 2026-04-23 16:01 | 25.76433 | 32.79107 | 4441 ft | 264 kts | 64° |
| 2026-04-23 16:01 | 25.77524 | 32.80667 | 4198 ft | 251 kts | 33° |
| 2026-04-23 16:01 | 25.79039 | 32.81449 | 4128 ft | 234 kts | 11° |
| 2026-04-23 16:02 | 25.80604 | 32.81846 | 4033 ft | 229 kts | 15° |
| 2026-04-23 16:02 | 25.82058 | 32.82516 | 3937 ft | 229 kts | 27° |
| 2026-04-23 16:02 | 25.83396 | 32.83477 | 3833 ft | 229 kts | 30° |
| 2026-04-23 16:02 | 25.84883 | 32.83944 | 3789 ft | 224 kts | 352° |
| 2026-04-23 16:03 | 25.86243 | 32.83214 | 3732 ft | 222 kts | 311° |
| 2026-04-23 16:03 | 25.86853 | 32.81681 | 3681 ft | 218 kts | 274° |
| 2026-04-23 16:03 | 25.86489 | 32.80104 | 3636 ft | 211 kts | 236° |
| 2026-04-23 16:03 | 25.85365 | 32.79096 | 3591 ft | 212 kts | 206° |
| 2026-04-23 16:04 | 25.83996 | 32.78460 | 3415 ft | 214 kts | 204° |
| 2026-04-23 16:04 | 25.82619 | 32.77835 | 3171 ft | 215 kts | 204° |
| 2026-04-23 16:04 | 25.81230 | 32.77194 | 2897 ft | 217 kts | 205° |
| 2026-04-23 16:04 | 25.79832 | 32.76547 | 2629 ft | 219 kts | 205° |
| 2026-04-23 16:05 | 25.78899 | 32.76114 | 2431 ft | 220 kts | 205° |
| 2026-04-23 16:05 | 25.77008 | 32.75237 | 2065 ft | 220 kts | 204° |
| 2026-04-23 16:05 | 25.75590 | 32.74579 | 1789 ft | 220 kts | 204° |
| 2026-04-23 16:05 | 25.74222 | 32.73946 | 1518 ft | 213 kts | 205° |
| 2026-04-23 16:06 | 25.72864 | 32.73317 | 1231 ft | 208 kts | 204° |
| 2026-04-23 16:06 | 25.71580 | 32.72723 | 999 ft | 191 kts | 204° |
| 2026-04-23 16:06 | 25.70403 | 32.72177 | 749 ft | 177 kts | 204° |
| 2026-04-23 16:06 | 25.69309 | 32.71665 | 526 ft | 166 kts | 205° |
| 2026-04-23 16:07 | 25.68265 | 32.71186 | 325 ft | 159 kts | 205° |
| 2026-04-23 16:07 | 25.67306 | 32.70740 | 287 ft | 123 kts | 202° |
| 2026-04-23 16:07 | 25.66682 | 32.70450 | 291 ft | 74 kts | 203° |
| 2026-04-23 16:07 | 25.66460 | 32.70317 | 295 ft | 10 kts | 261° |
| 2026-04-23 16:08 | 25.66496 | 32.70258 | 296 ft | 11 kts | 311° |
| 2026-04-23 16:08 | 25.66529 | 32.70174 | 295 ft | 13 kts | 292° |
| 2026-04-23 16:08 | 25.66589 | 32.70070 | 296 ft | 14 kts | 336° |
| 2026-04-23 16:08 | 25.66684 | 32.70106 | 296 ft | 21 kts | 20° |
| 2026-04-23 16:09 | 25.66839 | 32.70178 | 294 ft | 27 kts | 22° |
| 2026-04-23 16:09 | 25.66903 | 32.70208 | 296 ft | 0 kts | 22° |
| 2026-04-23 16:09 | 25.66904 | 32.70208 | 296 ft | 0 kts | 22° |
| 2026-04-23 16:12 | 25.66927 | 32.70219 | 292 ft | 7 kts | 22° |
| 2026-04-23 16:13 | 25.66970 | 32.70238 | 293 ft | 7 kts | 22° |
| 2026-04-23 16:13 | 25.67058 | 32.70276 | 291 ft | 7 kts | 20° |
| 2026-04-23 16:13 | 25.67103 | 32.70293 | 293 ft | 7 kts | 18° |
| 2026-04-23 16:14 | 25.67148 | 32.70308 | 291 ft | 7 kts | 16° |
| 2026-04-23 16:14 | 25.67193 | 32.70321 | 291 ft | 7 kts | 13° |
| 2026-04-23 16:14 | 25.67239 | 32.70332 | 289 ft | 7 kts | 9° |
| 2026-04-23 16:14 | 25.67286 | 32.70337 | 291 ft | 7 kts | 3° |
| 2026-04-23 16:15 | 25.67333 | 32.70336 | 290 ft | 7 kts | 354° |
| 2026-04-23 16:15 | 25.67379 | 32.70325 | 288 ft | 7 kts | 340° |
| 2026-04-23 16:15 | 25.67420 | 32.70300 | 288 ft | 7 kts | 321° |
| 2026-04-23 16:15 | 25.67450 | 32.70261 | 288 ft | 7 kts | 301° |
| 2026-04-23 16:16 | 25.67466 | 32.70225 | 288 ft | 0 kts | 295° |